createdAt,value
2022-09-23T00:00:31.741Z,98483.78
2022-09-23T00:02:59.456Z,98476.31
2022-09-23T00:05:26.978Z,98479.00
2022-09-23T00:07:54.563Z,98478.38
2022-09-23T00:10:24.204Z,98473.78
2022-09-23T00:12:52.520Z,98468.44
2022-09-23T00:15:19.983Z,98469.22
2022-09-23T00:17:47.508Z,98465.28
2022-09-23T00:20:15.050Z,98467.59
2022-09-23T00:22:42.403Z,98457.19
2022-09-23T00:25:10.746Z,98460.72
2022-09-23T00:27:39.966Z,98459.66
2022-09-23T00:30:09.859Z,98449.03
2022-09-23T00:32:37.749Z,98454.88
2022-09-23T00:35:05.978Z,98452.75
2022-09-23T00:37:33.332Z,98451.09
2022-09-23T00:40:00.690Z,98444.03
2022-09-23T00:42:28.035Z,98449.19
2022-09-23T00:44:59.282Z,98441.09
2022-09-23T00:47:32.514Z,98448.38
2022-09-23T00:50:06.991Z,98445.06
2022-09-23T00:52:35.003Z,98443.63
2022-09-23T00:55:07.804Z,98440.31
2022-09-23T00:57:36.757Z,98440.31
2022-09-23T01:00:07.795Z,98432.22
2022-09-23T01:02:35.326Z,98444.31
2022-09-23T01:05:05.496Z,98434.09
2022-09-23T01:07:33.704Z,98431.19
2022-09-23T01:10:02.111Z,98428.28
2022-09-23T01:12:47.231Z,98431.72
2022-09-23T01:15:20.954Z,98431.13
2022-09-23T01:17:55.657Z,98427.16
2022-09-23T01:20:47.040Z,98430.47
2022-09-23T01:23:33.967Z,98422.97
2022-09-23T01:26:13.813Z,98419.66
2022-09-23T01:29:02.504Z,98419.25
2022-09-23T01:31:39.023Z,98422.81
2022-09-23T01:34:14.850Z,98418.63
2022-09-23T01:36:47.764Z,98420.50
2022-09-23T01:39:22.619Z,98420.88
2022-09-23T01:42:00.489Z,98420.84
2022-09-23T01:44:32.811Z,98418.72
2022-09-23T01:47:07.364Z,98423.47
2022-09-23T01:49:42.006Z,98425.63
2022-09-23T01:52:15.047Z,98417.09
2022-09-23T01:54:50.319Z,98417.53
2022-09-23T01:57:23.753Z,98415.31
2022-09-23T01:59:55.124Z,98415.72
2022-09-23T02:02:29.290Z,98411.56
2022-09-23T02:05:03.445Z,98405.56
2022-09-23T02:07:38.461Z,98410.94
2022-09-23T02:10:16.966Z,98403.03
2022-09-23T02:12:47.349Z,98402.44
2022-09-23T02:15:18.518Z,98398.91
2022-09-23T02:17:51.227Z,98398.25
2022-09-23T02:20:23.420Z,98400.78
2022-09-23T02:22:56.836Z,98394.75
2022-09-23T02:25:31.019Z,98397.84
2022-09-23T02:28:05.522Z,98404.41
2022-09-23T02:30:43.973Z,98402.84
2022-09-23T02:33:21.217Z,98401.81
2022-09-23T02:35:54.186Z,98403.78
2022-09-23T02:38:29.482Z,98397.94
2022-09-23T02:41:04.449Z,98393.00
2022-09-23T02:43:37.019Z,98392.63
2022-09-23T02:46:06.385Z,98393.72
2022-09-23T02:48:40.121Z,98384.69
2022-09-23T02:51:08.238Z,98383.53
2022-09-23T02:53:35.628Z,98382.97
2022-09-23T02:56:13.274Z,98378.25
2022-09-23T02:58:40.835Z,98387.59
2022-09-23T03:01:16.838Z,98390.78
2022-09-23T03:03:49.368Z,98377.03
2022-09-23T03:06:29.565Z,98380.50
2022-09-23T03:09:02.753Z,98381.78
2022-09-23T03:11:31.220Z,98383.28
2022-09-23T03:14:12.615Z,98384.91
2022-09-23T03:16:43.967Z,98380.53
2022-09-23T03:19:27.297Z,98379.41
2022-09-23T03:22:02.885Z,98381.84
2022-09-23T03:24:32.283Z,98380.84
2022-09-23T03:27:04.931Z,98381.09
2022-09-23T03:29:33.636Z,98370.44
2022-09-23T03:32:01.467Z,98379.38
2022-09-23T03:34:34.600Z,98376.94
2022-09-23T03:37:07.851Z,98375.25
2022-09-23T03:39:38.906Z,98378.84
2022-09-23T03:42:12.602Z,98379.22
2022-09-23T03:44:43.303Z,98383.81
2022-09-23T03:47:11.149Z,98382.50
2022-09-23T03:49:41.155Z,98383.91
2022-09-23T03:52:08.697Z,98383.13
2022-09-23T03:54:36.019Z,98381.25
2022-09-23T03:57:04.078Z,98378.56
2022-09-23T03:59:31.789Z,98373.03
2022-09-23T04:02:00.050Z,98379.91
2022-09-23T04:04:27.784Z,98381.75
2022-09-23T04:06:57.148Z,98370.50
2022-09-23T04:09:24.827Z,98375.81
2022-09-23T04:11:53.216Z,98377.56
2022-09-23T04:14:21.822Z,98386.19
2022-09-23T04:16:50.203Z,98377.72
2022-09-23T04:19:18.786Z,98381.66
2022-09-23T04:21:46.352Z,98382.69
2022-09-23T04:24:16.587Z,98380.75
2022-09-23T04:26:44.808Z,98379.03
2022-09-23T04:29:12.288Z,98386.03
2022-09-23T04:31:39.883Z,98388.41
2022-09-23T04:34:07.515Z,98382.69
2022-09-23T04:36:35.015Z,98380.69
2022-09-23T04:39:03.157Z,98389.50
2022-09-23T04:41:32.278Z,98382.13
2022-09-23T04:43:59.770Z,98381.31
2022-09-23T04:46:27.250Z,98381.63
2022-09-23T04:48:55.532Z,98381.41
2022-09-23T04:51:25.041Z,98373.06
2022-09-23T04:53:53.912Z,98380.13
2022-09-23T04:56:23.307Z,98377.03
2022-09-23T04:58:53.138Z,98373.09
2022-09-23T05:01:22.597Z,98366.69
2022-09-23T05:03:50.512Z,98369.84
2022-09-23T05:06:18.156Z,98369.22
2022-09-23T05:08:48.780Z,98374.38
2022-09-23T05:11:16.660Z,98372.28
2022-09-23T05:13:44.074Z,98374.19
2022-09-23T05:16:13.021Z,98356.28
2022-09-23T05:18:41.931Z,98342.41
2022-09-23T05:21:10.365Z,98350.72
2022-09-23T05:23:38.110Z,98363.41
2022-09-23T05:26:07.552Z,98359.66
2022-09-23T05:28:35.772Z,98367.16
2022-09-23T05:31:04.364Z,98365.94
2022-09-23T05:33:33.910Z,98359.91
2022-09-23T05:36:01.916Z,98362.00
2022-09-23T05:38:29.934Z,98351.19
2022-09-23T05:40:57.626Z,98349.31
2022-09-23T05:43:25.485Z,98353.03
2022-09-23T05:46:02.243Z,98346.84
2022-09-23T05:48:31.574Z,98333.94
2022-09-23T05:51:01.369Z,98343.66
2022-09-23T05:53:29.848Z,98337.22
2022-09-23T05:55:57.518Z,98337.88
2022-09-23T05:58:25.452Z,98339.34
2022-09-23T06:00:52.934Z,98331.44
2022-09-23T06:03:21.781Z,98336.03
2022-09-23T06:05:52.931Z,98332.31
2022-09-23T06:08:22.301Z,98324.19
2022-09-23T06:10:54.328Z,98321.31
2022-09-23T06:13:22.061Z,98320.25
2022-09-23T06:15:49.506Z,98319.03
2022-09-23T06:18:16.860Z,98324.63
2022-09-23T06:20:44.360Z,98327.75
2022-09-23T06:23:11.905Z,98321.72
2022-09-23T06:25:40.765Z,98323.81
2022-09-23T06:28:08.162Z,98322.97
2022-09-23T06:30:35.561Z,98320.06
2022-09-23T06:33:02.929Z,98314.66
2022-09-23T06:35:31.019Z,98308.00
2022-09-23T06:37:58.670Z,98306.16
2022-09-23T06:40:26.086Z,98306.53
2022-09-23T06:42:59.827Z,98305.72
2022-09-23T06:45:28.563Z,98308.41
2022-09-23T06:47:56.458Z,98303.44
2022-09-23T06:50:25.932Z,98303.25
2022-09-23T06:52:54.219Z,98302.22
2022-09-23T06:55:22.524Z,98299.69
2022-09-23T06:57:50.336Z,98302.41
2022-09-23T07:00:19.788Z,98302.19
2022-09-23T07:02:47.842Z,98294.28
2022-09-23T07:05:15.569Z,98295.38
2022-09-23T07:07:43.437Z,98298.47
2022-09-23T07:10:11.934Z,98291.41
2022-09-23T07:12:39.499Z,98296.00
2022-09-23T07:15:07.877Z,98290.78
2022-09-23T07:17:36.797Z,98294.91
2022-09-23T07:20:05.719Z,98291.59
2022-09-23T07:22:33.180Z,98284.97
2022-09-23T07:25:00.663Z,98280.13
2022-09-23T07:27:28.622Z,98290.16
2022-09-23T07:29:56.027Z,98290.97
2022-09-23T07:32:24.138Z,98287.22
2022-09-23T07:34:52.996Z,98291.78
2022-09-23T07:37:20.563Z,98290.56
2022-09-23T07:39:47.961Z,98294.28
2022-09-23T07:42:15.398Z,98282.22
2022-09-23T07:44:43.194Z,98290.13
2022-09-23T07:47:11.214Z,98283.69
2022-09-23T07:49:38.640Z,98284.53
2022-09-23T07:52:07.677Z,98286.81
2022-09-23T07:54:35.295Z,98279.75
2022-09-23T07:57:03.123Z,98284.53
2022-09-23T07:59:31.180Z,98286.38
2022-09-23T08:01:58.736Z,98280.97
2022-09-23T08:04:28.137Z,98282.19
2022-09-23T08:06:57.308Z,98280.31
2022-09-23T08:09:28.179Z,98277.63
2022-09-23T08:11:55.804Z,98267.63
2022-09-23T08:14:23.409Z,98270.13
2022-09-23T08:16:51.240Z,98275.31
2022-09-23T08:19:19.070Z,98273.41
2022-09-23T08:21:47.251Z,98259.66
2022-09-23T08:24:16.718Z,98269.88
2022-09-23T08:26:46.951Z,98268.22
2022-09-23T08:29:15.448Z,98269.28
2022-09-23T08:31:43.343Z,98268.84
2022-09-23T08:34:11.143Z,98265.91
2022-09-23T08:36:39.075Z,98260.91
2022-09-23T08:39:06.943Z,98267.16
2022-09-23T08:41:43.598Z,98269.44
2022-09-23T08:44:16.243Z,98265.72
2022-09-23T08:46:49.362Z,98263.03
2022-09-23T08:49:26.317Z,98264.63
2022-09-23T08:51:55.307Z,98264.00
2022-09-23T08:54:22.845Z,98269.25
2022-09-23T08:56:51.778Z,98258.97
2022-09-23T08:59:26.839Z,98259.66
2022-09-23T09:02:00.345Z,98255.88
2022-09-23T09:04:39.214Z,98255.47
2022-09-23T09:10:07.045Z,98246.91
2022-09-23T09:12:40.876Z,98243.31
2022-09-23T09:15:13.774Z,98240.03
2022-09-23T09:17:48.173Z,98247.72
2022-09-23T09:20:34.517Z,98237.97
2022-09-23T09:23:12.657Z,98239.41
2022-09-23T09:25:46.092Z,98232.69
2022-09-23T09:28:22.184Z,98226.63
2022-09-23T09:30:56.147Z,98227.22
2022-09-23T09:33:28.494Z,98226.47
2022-09-23T09:36:08.678Z,98222.13
2022-09-23T09:38:36.976Z,98223.72
2022-09-23T09:41:14.153Z,98215.19
2022-09-23T09:43:44.350Z,98207.72
2022-09-23T09:46:27.118Z,98208.56
2022-09-23T09:48:58.447Z,98204.88
2022-09-23T09:51:27.699Z,98194.28
2022-09-23T09:53:55.792Z,98195.00
2022-09-23T09:56:30.368Z,98189.94
2022-09-23T09:59:02.190Z,98190.94
2022-09-23T10:01:32.921Z,98196.22
2022-09-23T10:04:03.629Z,98184.13
2022-09-23T10:06:32.888Z,98190.63
2022-09-23T10:09:14.375Z,98184.06
2022-09-23T10:11:42.067Z,98192.13
2022-09-23T10:14:15.424Z,98194.47
2022-09-23T10:16:45.611Z,98189.56
2022-09-23T10:19:18.629Z,98195.59
2022-09-23T10:21:51.791Z,98180.69
2022-09-23T10:24:23.824Z,98191.44
2022-09-23T10:26:57.869Z,98179.50
2022-09-23T10:29:30.631Z,98183.19
2022-09-23T10:32:23.823Z,98180.50
2022-09-23T10:34:54.087Z,98169.13
2022-09-23T10:37:36.140Z,98168.81
2022-09-23T10:40:14.312Z,98175.38
2022-09-23T10:43:01.416Z,98174.81
2022-09-23T10:45:33.868Z,98160.63
2022-09-23T10:48:12.173Z,98155.59
2022-09-23T10:50:44.249Z,98158.06
2022-09-23T10:53:20.230Z,98162.56
2022-09-23T10:56:01.786Z,98155.28
2022-09-23T10:58:49.730Z,98152.66
2022-09-23T11:01:28.653Z,98151.06
2022-09-23T11:04:18.551Z,98152.50
2022-09-23T11:07:05.566Z,98151.44
2022-09-23T11:09:44.130Z,98143.47
2022-09-23T11:12:28.085Z,98135.81
2022-09-23T11:15:16.435Z,98136.81
2022-09-23T11:17:59.944Z,98133.44
2022-09-23T11:20:48.011Z,98137.72
2022-09-23T11:24:02.159Z,98135.56
2022-09-23T11:26:40.752Z,98133.75
2022-09-23T11:29:29.445Z,98131.91
2022-09-23T11:32:10.240Z,98124.22
2022-09-23T11:35:01.572Z,98130.56
2022-09-23T11:37:35.303Z,98118.47
2022-09-23T11:40:12.126Z,98124.75
2022-09-23T11:42:46.952Z,98120.59
2022-09-23T11:45:18.844Z,98118.84
2022-09-23T11:47:51.105Z,98122.03
2022-09-23T11:50:23.619Z,98121.81
2022-09-23T11:53:00.470Z,98127.63
2022-09-23T11:55:31.220Z,98118.03
2022-09-23T11:58:06.647Z,98124.34
2022-09-23T12:00:48.730Z,98116.91
2022-09-23T12:03:38.858Z,98123.09
2022-09-23T12:06:15.309Z,98121.16
2022-09-23T12:08:44.591Z,98114.56
2022-09-23T12:11:24.579Z,98113.13
2022-09-23T12:14:01.311Z,98122.69
2022-09-23T12:17:04.265Z,98116.41
2022-09-23T12:19:46.358Z,98123.72
2022-09-23T12:22:28.673Z,98119.38
2022-09-23T12:25:07.102Z,98118.53
2022-09-23T12:27:38.790Z,98115.16
2022-09-23T12:30:14.801Z,98117.44
2022-09-23T12:32:42.871Z,98113.50
2022-09-23T12:35:22.549Z,98114.09
2022-09-23T12:37:50.034Z,98113.81
2022-09-23T12:40:22.664Z,98115.47
2022-09-23T12:42:50.855Z,98118.81
2022-09-23T12:45:37.013Z,98115.19
2022-09-23T12:48:24.607Z,98102.09
2022-09-23T12:50:57.094Z,98103.66
2022-09-23T12:54:06.219Z,98104.72
2022-09-23T12:57:00.656Z,98103.44
2022-09-23T12:59:31.531Z,98102.56
2022-09-23T13:02:23.320Z,98105.94
2022-09-23T13:04:57.568Z,98093.81
2022-09-23T13:07:28.182Z,98093.06
2022-09-23T13:10:03.454Z,98091.84
2022-09-23T13:12:35.740Z,98092.09
2022-09-23T13:15:13.479Z,98100.81
2022-09-23T13:17:40.948Z,98096.91
2022-09-23T13:20:34.784Z,98098.09
2022-09-23T13:23:21.903Z,98098.19
2022-09-23T13:25:51.615Z,98103.84
2022-09-23T13:28:32.521Z,98098.84
2022-09-23T13:31:04.613Z,98096.38
2022-09-23T13:33:40.169Z,98096.00
2022-09-23T13:36:12.870Z,98091.44
2022-09-23T13:38:40.610Z,98091.78
2022-09-23T13:41:13.901Z,98096.94
2022-09-23T13:43:45.363Z,98096.75
2022-09-23T13:46:17.468Z,98089.47
2022-09-23T13:48:47.526Z,98090.94
2022-09-23T13:51:22.082Z,98088.69
2022-09-23T13:53:53.423Z,98088.53
2022-09-23T13:56:21.410Z,98082.09
2022-09-23T13:58:50.492Z,98077.75
2022-09-23T14:01:29.264Z,98075.03
2022-09-23T14:03:56.725Z,98076.19
2022-09-23T14:06:25.498Z,98074.28
2022-09-23T14:08:53.599Z,98072.44
2022-09-23T14:11:29.098Z,98073.53
2022-09-23T14:14:00.748Z,98073.94
2022-09-23T14:16:50.949Z,98076.25
2022-09-23T14:19:21.531Z,98077.13
2022-09-23T14:21:50.204Z,98072.78
2022-09-23T14:24:20.028Z,98072.13
2022-09-23T14:26:50.418Z,98074.72
2022-09-23T14:29:21.267Z,98068.69
2022-09-23T14:31:54.355Z,98074.28
2022-09-23T14:34:44.632Z,98074.31
2022-09-23T14:37:21.988Z,98067.28
2022-09-23T14:39:54.508Z,98078.50
2022-09-23T14:42:24.507Z,98073.09
2022-09-23T14:44:53.988Z,98070.97
2022-09-23T14:47:21.547Z,98064.38
2022-09-23T14:49:50.762Z,98066.41
2022-09-23T14:52:18.241Z,98067.28
2022-09-23T14:54:46.407Z,98073.97
2022-09-23T14:57:26.725Z,98077.13
2022-09-23T14:59:59.701Z,98073.78
2022-09-23T15:02:35.687Z,98070.25
2022-09-23T15:05:30.056Z,98072.75
2022-09-23T15:08:00.288Z,98069.66
2022-09-23T15:10:30.363Z,98072.97
2022-09-23T15:13:05.419Z,98071.16
2022-09-23T15:15:34.347Z,98066.56
2022-09-23T15:18:07.163Z,98070.34
2022-09-23T15:20:35.559Z,98070.09
2022-09-23T15:23:03.018Z,98069.50
2022-09-23T15:25:33.752Z,98072.00
2022-09-23T15:28:04.284Z,98060.56
2022-09-23T15:30:35.092Z,98070.53
2022-09-23T15:33:02.454Z,98053.13
2022-09-23T15:35:30.713Z,98067.22
2022-09-23T15:37:59.584Z,98060.34
2022-09-23T15:40:29.166Z,98059.97
2022-09-23T15:42:57.095Z,98055.78
2022-09-23T15:45:31.650Z,98056.59
2022-09-23T15:48:04.727Z,98054.53
2022-09-23T15:50:34.484Z,98061.41
2022-09-23T15:53:01.831Z,98067.91
2022-09-23T15:55:29.225Z,98057.88
2022-09-23T15:57:56.602Z,98051.88
2022-09-23T16:00:24.054Z,98053.53
2022-09-23T16:02:52.482Z,98052.91
2022-09-23T16:05:26.442Z,98046.00
2022-09-23T16:07:54.317Z,98039.13
2022-09-23T16:10:22.625Z,98041.16
2022-09-23T16:12:52.190Z,98039.28
2022-09-23T16:15:21.818Z,98036.34
2022-09-23T16:17:49.233Z,98030.72
2022-09-23T16:20:16.817Z,98025.69
2022-09-23T16:22:52.351Z,98030.88
2022-09-23T16:25:20.579Z,98024.88
2022-09-23T16:27:48.011Z,98026.75
2022-09-23T16:30:15.769Z,98032.16
2022-09-23T16:32:43.135Z,98029.38
2022-09-23T16:35:10.585Z,98027.72
2022-09-23T16:37:37.999Z,98019.84
2022-09-23T16:40:08.240Z,98016.53
2022-09-23T16:42:35.636Z,98020.72
2022-09-23T16:45:03.874Z,98018.41
2022-09-23T16:47:31.225Z,98018.19
2022-09-23T16:49:58.620Z,98018.81
2022-09-23T16:52:26.005Z,98011.94
2022-09-23T16:54:53.366Z,98013.81
2022-09-23T16:57:22.245Z,98016.53
2022-09-23T16:59:49.601Z,98020.72
2022-09-23T17:02:17.021Z,98012.16
2022-09-23T17:04:44.498Z,98007.81
2022-09-23T17:07:11.875Z,98010.50
2022-09-23T17:09:39.264Z,98011.78
2022-09-23T17:12:14.232Z,98001.59
2022-09-23T17:14:43.060Z,98005.69
2022-09-23T17:17:10.849Z,98007.59
2022-09-23T17:19:38.417Z,97991.56
2022-09-23T17:22:05.815Z,97999.69
2022-09-23T17:24:33.217Z,97998.44
2022-09-23T17:27:00.605Z,98000.53
2022-09-23T17:29:27.972Z,97995.94
2022-09-23T17:31:56.819Z,97999.47
2022-09-23T17:34:24.216Z,97998.44
2022-09-23T17:36:51.667Z,97992.16
2022-09-23T17:39:19.033Z,97989.72
2022-09-23T17:41:46.428Z,97994.28
2022-09-23T17:44:13.988Z,97991.97
2022-09-23T17:46:41.320Z,97990.75
2022-09-23T17:49:10.174Z,97991.50
2022-09-23T17:51:37.919Z,97987.81
2022-09-23T17:54:05.391Z,97981.13
2022-09-23T17:56:32.742Z,97987.38
2022-09-23T17:59:01.368Z,97984.44
2022-09-23T18:01:29.266Z,97987.16
2022-09-23T18:03:58.162Z,97989.47
2022-09-23T18:06:28.889Z,97981.75
2022-09-23T18:08:56.258Z,97987.16
2022-09-23T18:11:25.666Z,97975.72
2022-09-23T18:13:55.300Z,97974.91
2022-09-23T18:16:24.896Z,97977.00
2022-09-23T18:18:52.815Z,97969.13
2022-09-23T18:21:20.637Z,97977.63
2022-09-23T18:23:50.227Z,97967.81
2022-09-23T18:26:19.546Z,97963.25
2022-09-23T18:28:47.257Z,97964.44
2022-09-23T18:31:15.398Z,97969.66
2022-09-23T18:33:42.802Z,97968.59
2022-09-23T18:36:10.674Z,97956.97
2022-09-23T18:38:38.033Z,97962.59
2022-09-23T18:41:06.923Z,97956.13
2022-09-23T18:43:40.506Z,97958.84
2022-09-23T18:46:13.020Z,97956.59
2022-09-23T18:48:41.065Z,97951.31
2022-09-23T18:51:09.701Z,97950.25
2022-09-23T18:53:37.874Z,97952.16
2022-09-23T18:56:08.713Z,97950.25
2022-09-23T18:58:36.455Z,97948.19
2022-09-23T19:01:06.630Z,97940.66
2022-09-23T19:03:34.912Z,97950.03
2022-09-23T19:06:04.832Z,97947.34
2022-09-23T19:08:32.365Z,97943.81
2022-09-23T19:11:01.904Z,97944.84
2022-09-23T19:13:30.836Z,97944.03
2022-09-23T19:16:01.798Z,97947.56
2022-09-23T19:18:29.249Z,97939.44
2022-09-23T19:20:57.252Z,97942.00
2022-09-23T19:23:24.603Z,97940.34
2022-09-23T19:25:51.945Z,97934.34
2022-09-23T19:28:19.303Z,97936.22
2022-09-23T19:30:48.185Z,97935.75
2022-09-23T19:33:15.519Z,97928.31
2022-09-23T19:35:46.861Z,97932.84
2022-09-23T19:38:15.734Z,97930.97
2022-09-23T19:40:46.504Z,97932.84
2022-09-23T19:43:16.482Z,97922.47
2022-09-23T19:45:43.970Z,97929.06
2022-09-23T19:48:12.808Z,97935.91
2022-09-23T19:50:40.604Z,97932.16
2022-09-23T19:53:08.166Z,97931.31
2022-09-23T19:55:36.052Z,97933.44
2022-09-23T19:58:04.080Z,97930.34
2022-09-23T20:00:31.929Z,97925.16
2022-09-23T20:02:59.758Z,97928.25
2022-09-23T20:05:28.741Z,97923.06
2022-09-23T20:07:56.656Z,97920.16
2022-09-23T20:10:24.116Z,97921.16
2022-09-23T20:12:51.898Z,97924.94
2022-09-23T20:15:19.451Z,97913.28
2022-09-23T20:17:46.871Z,97917.06
2022-09-23T20:20:14.373Z,97923.06
2022-09-23T20:22:43.276Z,97920.81
2022-09-23T20:25:10.904Z,97916.44
2022-09-23T20:27:38.334Z,97921.63
2022-09-23T20:30:07.318Z,97923.75
2022-09-23T20:32:34.787Z,97916.69
2022-09-23T20:35:02.295Z,97916.88
2022-09-23T20:37:29.790Z,97914.19
2022-09-23T20:39:58.607Z,97919.59
2022-09-23T20:42:26.119Z,97919.59
2022-09-23T20:44:54.035Z,97916.69
2022-09-23T20:47:24.008Z,97909.81
2022-09-23T20:49:51.425Z,97906.75
2022-09-23T20:52:18.783Z,97906.75
2022-09-23T20:54:46.117Z,97903.22
2022-09-23T20:57:14.916Z,97911.09
2022-09-23T20:59:42.764Z,97903.81
2022-09-23T21:02:11.094Z,97907.13
2022-09-23T21:04:39.114Z,97903.81
2022-09-23T21:07:06.510Z,97891.34
2022-09-23T21:09:33.855Z,97891.34
2022-09-23T21:12:01.556Z,97890.38
2022-09-23T21:14:30.363Z,97902.59
2022-09-23T21:16:57.692Z,97896.38
2022-09-23T21:19:25.083Z,97891.78
2022-09-23T21:21:52.422Z,97894.06
2022-09-23T21:25:08.469Z,97904.25
2022-09-23T21:27:07.109Z,97900.78
2022-09-23T21:29:35.875Z,97898.78
2022-09-23T21:32:03.862Z,97897.97
2022-09-23T21:34:31.704Z,97897.47
2022-09-23T21:36:59.056Z,97904.09
2022-09-23T21:39:26.396Z,97893.88
2022-09-23T21:41:53.747Z,97887.22
2022-09-23T21:44:21.152Z,97886.81
2022-09-23T21:46:49.955Z,97884.19
2022-09-23T21:49:17.424Z,97880.50
2022-09-23T21:51:44.742Z,97882.41
2022-09-23T21:54:13.671Z,97877.41
2022-09-23T21:56:41.597Z,97875.28
2022-09-23T21:59:09.006Z,97872.97
2022-09-23T22:01:38.741Z,97869.25
2022-09-23T22:04:08.451Z,97866.53
2022-09-23T22:06:37.858Z,97868.63
2022-09-23T22:09:07.287Z,97865.53
2022-09-23T22:11:35.480Z,97870.25
2022-09-23T22:14:05.879Z,97869.84
2022-09-23T22:16:34.280Z,97867.72
2022-09-23T22:19:02.047Z,97867.72
2022-09-23T22:21:31.447Z,97862.94
2022-09-23T22:23:59.773Z,97859.19
2022-09-23T22:26:27.926Z,97853.78
2022-09-23T22:28:55.263Z,97862.50
2022-09-23T22:31:22.803Z,97863.53
2022-09-23T22:33:50.400Z,97867.31
2022-09-23T22:36:18.198Z,97869.41
2022-09-23T22:38:46.992Z,97870.81
2022-09-23T22:41:14.335Z,97881.63
2022-09-23T22:43:41.681Z,97883.53
2022-09-23T22:46:09.038Z,97886.97
2022-09-23T22:48:36.399Z,97892.31
2022-09-23T22:51:04.529Z,97891.34
2022-09-23T22:53:31.897Z,97893.19
2022-09-23T22:56:01.593Z,97890.94
2022-09-23T22:58:32.601Z,97887.13
2022-09-23T23:01:00.316Z,97887.06
2022-09-23T23:03:27.756Z,97887.06
2022-09-23T23:05:55.144Z,97886.25
2022-09-23T23:08:22.517Z,97885.41
2022-09-23T23:10:50.675Z,97870.81
2022-09-23T23:13:19.455Z,97878.06
2022-09-23T23:15:47.696Z,97883.94
2022-09-23T23:18:15.583Z,97883.53
2022-09-23T23:20:42.909Z,97884.13
2022-09-23T23:23:10.249Z,97887.38
2022-09-23T23:25:37.589Z,97875.44
2022-09-23T23:28:04.946Z,97874.09
2022-09-23T23:30:34.698Z,97881.31
2022-09-23T23:33:01.711Z,97882.19
2022-09-23T23:35:29.245Z,97884.16
2022-09-23T23:37:56.591Z,97892.28
2022-09-23T23:40:24.054Z,97873.09
2022-09-23T23:42:51.421Z,97876.47
2022-09-23T23:45:18.835Z,97881.31
2022-09-23T23:47:47.704Z,97885.94
2022-09-23T23:50:15.243Z,97875.00
2022-09-23T23:52:42.593Z,97878.69
2022-09-23T23:55:10.068Z,97881.31
2022-09-23T23:57:37.447Z,97877.69
